Погода Казальникна 2 недели

Кырджали, Болгария

14 - 27 июля
  • 14июля
    Сегодня
    +17°
    +36°
    Ясно и безоблачно
    ВремяПогодаТемператураВлажностьДавлениеВетер, м/сВероятность осадков
    00:00Ясно и безоблачно+23°C58 %727 мм1.5 м/с2 %
    03:00Ясно и безоблачно+20°C69 %727 мм1.3 м/с2 %
    06:00Ясно и безоблачно+18°C70 %727 мм1.3 м/с2 %
    09:00Ясно и безоблачно+27°C40 %728 мм0.6 м/с2 %
    12:00Ясно и безоблачно+33°C25 %728 мм2.0 м/с2 %
    15:00Ясно и безоблачно+36°C19 %727 мм3.0 м/с2 %
    18:00Ясно и безоблачно+35°C20 %726 мм3.3 м/с2 %
    21:00Ясно и безоблачно+30°C30 %726 мм0.6 м/с2 %
  • 15июля
    Понедельник
    +18°
    +37°
    Ясно и безоблачно
    ВремяПогодаТемператураВлажностьДавлениеВетер, м/сВероятность осадков
    00:00Ясно и безоблачно+22°C42 %727 мм1.0 м/с2 %
    03:00Ясно и безоблачно+20°C50 %727 мм1.2 м/с2 %
    06:00Ясно и безоблачно+17°C59 %726 мм1.4 м/с2 %
    09:00Ясно и безоблачно+27°C34 %727 мм1.4 м/с2 %
    12:00Ясно и безоблачно+33°C15 %728 мм2.0 м/с2 %
    15:00Ясно и безоблачно+36°C17 %727 мм2.5 м/с2 %
    18:00Ясно и безоблачно+35°C19 %727 мм3.7 м/с2 %
    21:00Ясно и безоблачно+28°C31 %727 мм1.5 м/с2 %
  • 16июля
    Вторник
    +19°
    +37°
    Практически безоблачно
    ВремяПогодаТемператураВлажностьДавлениеВетер, м/сВероятность осадков
    00:00Ясно и безоблачно+22°C49 %727 мм1.1 м/с2 %
    03:00Ясно и безоблачно+21°C51 %727 мм1.5 м/с2 %
    06:00Ясно и безоблачно+18°C60 %726 мм1.4 м/с2 %
    09:00Ясно и безоблачно+27°C32 %728 мм0.9 м/с2 %
    12:00Ясно и безоблачно+34°C25 %728 мм3.3 м/с2 %
    15:00Практически безоблачно+37°C23 %728 мм3.3 м/с2 %
    18:00Практически безоблачно+36°C25 %727 мм2.5 м/с6 %
    21:00Ясно и безоблачно+30°C34 %727 мм1.4 м/с2 %
  • 17июля
    Среда
    +21°
    +38°
    Практически безоблачно
    ВремяПогодаТемператураВлажностьДавлениеВетер, м/сВероятность осадков
    00:00Ясно и безоблачно+24°C39 %727 мм1.6 м/с2 %
    03:00Ясно и безоблачно+21°C52 %727 мм1.2 м/с2 %
    06:00Ясно и безоблачно+20°C60 %726 мм0.9 м/с2 %
    09:00Ясно и безоблачно+28°C32 %728 мм1.0 м/с2 %
    12:00Ясно и безоблачно+36°C21 %729 мм1.6 м/с2 %
    15:00Практически безоблачно+38°C21 %729 мм2.7 м/с3 %
    18:00Небольшая облачность+36°C23 %728 мм3.2 м/с10 %
    21:00Практически безоблачно+31°C36 %728 мм1.4 м/с3 %
  • 18июля
    Четверг
    +20°
    +39°
    Небольшая облачность
    ВремяПогодаТемператураВлажностьДавлениеВетер, м/сВероятность осадков
    00:00Ясно и безоблачно+25°C47 %729 мм1.0 м/с2 %
    03:00Ясно и безоблачно+22°C54 %728 мм1.0 м/с2 %
    06:00Ясно и безоблачно+21°C58 %728 мм0.9 м/с2 %
    09:00Ясно и безоблачно+30°C34 %729 мм0.7 м/с2 %
    12:00Ясно и безоблачно+36°C24 %729 мм2.3 м/с13 %
    15:00Небольшая облачность+38°C23 %728 мм2.0 м/с31 %
    18:00Небольшая облачность+37°C25 %728 мм0.6 м/с38 %
    21:00Практически безоблачно+31°C37 %728 мм2.0 м/с17 %
Мы используем cookies
Соглашаюсь